sensor_id;sensor_type;location;lat;lon;timestamp;P1;durP1;ratioP1;P2;durP2;ratioP2
53925;SDS011;39836;52.754;6.866;2023-02-15T00:01:51;84.97;;;51.10;;
53925;SDS011;39836;52.754;6.866;2023-02-15T00:04:19;88.85;;;51.22;;
53925;SDS011;39836;52.754;6.866;2023-02-15T00:06:46;87.82;;;52.67;;
53925;SDS011;39836;52.754;6.866;2023-02-15T00:09:12;87.20;;;52.70;;
53925;SDS011;39836;52.754;6.866;2023-02-15T00:11:38;82.75;;;48.72;;
53925;SDS011;39836;52.754;6.866;2023-02-15T00:14:09;76.40;;;48.03;;
53925;SDS011;39836;52.754;6.866;2023-02-15T00:16:40;76.72;;;47.55;;
53925;SDS011;39836;52.754;6.866;2023-02-15T00:19:07;79.72;;;48.83;;
53925;SDS011;39836;52.754;6.866;2023-02-15T00:21:34;80.68;;;48.75;;
53925;SDS011;39836;52.754;6.866;2023-02-15T00:24:01;80.07;;;49.00;;
53925;SDS011;39836;52.754;6.866;2023-02-15T00:26:28;81.63;;;47.60;;
53925;SDS011;39836;52.754;6.866;2023-02-15T00:28:54;81.88;;;49.78;;
53925;SDS011;39836;52.754;6.866;2023-02-15T00:31:20;80.43;;;46.03;;
53925;SDS011;39836;52.754;6.866;2023-02-15T00:33:46;77.65;;;46.20;;
53925;SDS011;39836;52.754;6.866;2023-02-15T00:36:12;71.95;;;44.28;;
53925;SDS011;39836;52.754;6.866;2023-02-15T00:38:38;76.68;;;47.20;;
53925;SDS011;39836;52.754;6.866;2023-02-15T00:41:05;82.53;;;49.13;;
53925;SDS011;39836;52.754;6.866;2023-02-15T00:43:32;86.93;;;49.58;;
53925;SDS011;39836;52.754;6.866;2023-02-15T00:45:59;85.13;;;48.33;;
53925;SDS011;39836;52.754;6.866;2023-02-15T00:48:25;73.68;;;45.85;;
53925;SDS011;39836;52.754;6.866;2023-02-15T00:50:52;83.15;;;48.60;;
53925;SDS011;39836;52.754;6.866;2023-02-15T00:53:21;80.95;;;49.10;;
53925;SDS011;39836;52.754;6.866;2023-02-15T00:55:46;78.63;;;48.35;;
53925;SDS011;39836;52.754;6.866;2023-02-15T00:58:13;87.22;;;48.40;;
53925;SDS011;39836;52.754;6.866;2023-02-15T01:00:40;88.90;;;50.20;;
53925;SDS011;39836;52.754;6.866;2023-02-15T01:03:07;74.88;;;45.67;;
53925;SDS011;39836;52.754;6.866;2023-02-15T01:05:33;72.70;;;45.75;;
53925;SDS011;39836;52.754;6.866;2023-02-15T01:07:59;72.90;;;46.25;;
53925;SDS011;39836;52.754;6.866;2023-02-15T01:10:25;74.65;;;46.70;;
53925;SDS011;39836;52.754;6.866;2023-02-15T01:12:52;68.88;;;43.65;;
53925;SDS011;39836;52.754;6.866;2023-02-15T01:15:19;61.13;;;42.25;;
53925;SDS011;39836;52.754;6.866;2023-02-15T01:17:45;70.32;;;45.28;;
53925;SDS011;39836;52.754;6.866;2023-02-15T01:20:26;73.90;;;44.70;;
53925;SDS011;39836;52.754;6.866;2023-02-15T01:22:53;81.68;;;45.97;;
53925;SDS011;39836;52.754;6.866;2023-02-15T01:25:21;74.82;;;47.40;;
53925;SDS011;39836;52.754;6.866;2023-02-15T01:27:48;74.30;;;46.30;;
53925;SDS011;39836;52.754;6.866;2023-02-15T01:30:14;73.43;;;45.65;;
53925;SDS011;39836;52.754;6.866;2023-02-15T01:32:40;73.93;;;47.42;;
53925;SDS011;39836;52.754;6.866;2023-02-15T01:35:06;70.30;;;47.63;;
53925;SDS011;39836;52.754;6.866;2023-02-15T01:37:33;78.65;;;47.95;;
53925;SDS011;39836;52.754;6.866;2023-02-15T01:39:59;72.18;;;44.70;;
53925;SDS011;39836;52.754;6.866;2023-02-15T01:42:26;70.35;;;44.10;;
53925;SDS011;39836;52.754;6.866;2023-02-15T01:44:54;86.22;;;42.00;;
53925;SDS011;39836;52.754;6.866;2023-02-15T01:47:41;81.68;;;45.25;;
53925;SDS011;39836;52.754;6.866;2023-02-15T01:50:09;76.95;;;43.85;;
53925;SDS011;39836;52.754;6.866;2023-02-15T01:52:37;69.70;;;43.47;;
53925;SDS011;39836;52.754;6.866;2023-02-15T01:55:08;71.78;;;45.03;;
53925;SDS011;39836;52.754;6.866;2023-02-15T01:57:34;243.85;;;54.65;;
53925;SDS011;39836;52.754;6.866;2023-02-15T02:00:01;232.65;;;57.22;;
53925;SDS011;39836;52.754;6.866;2023-02-15T02:02:29;100.95;;;52.30;;
53925;SDS011;39836;52.754;6.866;2023-02-15T02:04:59;93.43;;;48.90;;
53925;SDS011;39836;52.754;6.866;2023-02-15T02:07:35;99.25;;;51.55;;
53925;SDS011;39836;52.754;6.866;2023-02-15T02:10:04;109.25;;;46.97;;
53925;SDS011;39836;52.754;6.866;2023-02-15T02:12:31;168.38;;;54.08;;
53925;SDS011;39836;52.754;6.866;2023-02-15T02:14:58;87.00;;;49.47;;
53925;SDS011;39836;52.754;6.866;2023-02-15T02:33:39;74.60;;;47.05;;
53925;SDS011;39836;52.754;6.866;2023-02-15T02:36:30;87.03;;;49.33;;
53925;SDS011;39836;52.754;6.866;2023-02-15T02:41:44;77.45;;;44.25;;
53925;SDS011;39836;52.754;6.866;2023-02-15T02:44:43;72.00;;;42.78;;
53925;SDS011;39836;52.754;6.866;2023-02-15T02:47:26;72.00;;;45.10;;
53925;SDS011;39836;52.754;6.866;2023-02-15T02:49:58;80.72;;;45.85;;
53925;SDS011;39836;52.754;6.866;2023-02-15T02:52:35;81.20;;;45.80;;
53925;SDS011;39836;52.754;6.866;2023-02-15T02:58:08;89.10;;;44.90;;
53925;SDS011;39836;52.754;6.866;2023-02-15T03:00:53;93.28;;;47.92;;
53925;SDS011;39836;52.754;6.866;2023-02-15T03:03:26;178.18;;;52.95;;
53925;SDS011;39836;52.754;6.866;2023-02-15T03:05:57;232.50;;;49.63;;
53925;SDS011;39836;52.754;6.866;2023-02-15T03:08:30;268.23;;;51.13;;
53925;SDS011;39836;52.754;6.866;2023-02-15T03:11:02;157.25;;;47.33;;
53925;SDS011;39836;52.754;6.866;2023-02-15T03:13:29;166.13;;;49.25;;
53925;SDS011;39836;52.754;6.866;2023-02-15T03:15:55;142.20;;;42.65;;
53925;SDS011;39836;52.754;6.866;2023-02-15T03:18:43;113.35;;;45.72;;
53925;SDS011;39836;52.754;6.866;2023-02-15T03:21:17;115.78;;;42.47;;
53925;SDS011;39836;52.754;6.866;2023-02-15T03:23:54;73.90;;;40.58;;
53925;SDS011;39836;52.754;6.866;2023-02-15T03:26:29;119.80;;;43.70;;
53925;SDS011;39836;52.754;6.866;2023-02-15T03:28:57;115.65;;;46.03;;
53925;SDS011;39836;52.754;6.866;2023-02-15T03:31:26;83.55;;;43.75;;
53925;SDS011;39836;52.754;6.866;2023-02-15T03:33:57;95.10;;;46.15;;
53925;SDS011;39836;52.754;6.866;2023-02-15T03:36:33;139.25;;;48.20;;
53925;SDS011;39836;52.754;6.866;2023-02-15T03:39:10;115.03;;;47.70;;
53925;SDS011;39836;52.754;6.866;2023-02-15T03:41:48;95.78;;;47.47;;
53925;SDS011;39836;52.754;6.866;2023-02-15T03:44:23;98.07;;;46.70;;
53925;SDS011;39836;52.754;6.866;2023-02-15T03:46:58;84.43;;;47.97;;
53925;SDS011;39836;52.754;6.866;2023-02-15T03:49:34;75.38;;;46.20;;
53925;SDS011;39836;52.754;6.866;2023-02-15T03:52:11;112.45;;;49.58;;
53925;SDS011;39836;52.754;6.866;2023-02-15T03:54:40;78.72;;;44.15;;
53925;SDS011;39836;52.754;6.866;2023-02-15T03:57:21;74.88;;;45.40;;
53925;SDS011;39836;52.754;6.866;2023-02-15T04:03:17;63.53;;;39.50;;
53925;SDS011;39836;52.754;6.866;2023-02-15T04:05:45;67.38;;;42.17;;
53925;SDS011;39836;52.754;6.866;2023-02-15T04:08:11;70.88;;;42.00;;
53925;SDS011;39836;52.754;6.866;2023-02-15T04:10:38;77.13;;;45.97;;
53925;SDS011;39836;52.754;6.866;2023-02-15T04:13:29;71.78;;;44.22;;
53925;SDS011;39836;52.754;6.866;2023-02-15T04:15:56;68.03;;;43.83;;
53925;SDS011;39836;52.754;6.866;2023-02-15T04:18:28;69.88;;;42.75;;
53925;SDS011;39836;52.754;6.866;2023-02-15T04:21:20;78.78;;;45.53;;
53925;SDS011;39836;52.754;6.866;2023-02-15T04:24:06;74.85;;;46.38;;
53925;SDS011;39836;52.754;6.866;2023-02-15T04:26:51;84.20;;;49.67;;
53925;SDS011;39836;52.754;6.866;2023-02-15T04:29:21;82.05;;;48.92;;
53925;SDS011;39836;52.754;6.866;2023-02-15T04:31:48;78.05;;;46.00;;
53925;SDS011;39836;52.754;6.866;2023-02-15T04:34:15;81.80;;;47.90;;
53925;SDS011;39836;52.754;6.866;2023-02-15T04:36:40;85.43;;;48.15;;
53925;SDS011;39836;52.754;6.866;2023-02-15T04:39:06;80.07;;;46.15;;
53925;SDS011;39836;52.754;6.866;2023-02-15T04:41:32;76.95;;;46.50;;
53925;SDS011;39836;52.754;6.866;2023-02-15T04:43:58;79.80;;;46.88;;
53925;SDS011;39836;52.754;6.866;2023-02-15T04:46:25;75.47;;;43.60;;
53925;SDS011;39836;52.754;6.866;2023-02-15T04:48:52;63.85;;;42.33;;
53925;SDS011;39836;52.754;6.866;2023-02-15T04:51:18;63.50;;;42.45;;
53925;SDS011;39836;52.754;6.866;2023-02-15T04:53:43;68.28;;;44.13;;
53925;SDS011;39836;52.754;6.866;2023-02-15T04:56:09;74.93;;;45.25;;
53925;SDS011;39836;52.754;6.866;2023-02-15T04:58:35;77.70;;;47.13;;
53925;SDS011;39836;52.754;6.866;2023-02-15T05:01:02;81.03;;;46.38;;
53925;SDS011;39836;52.754;6.866;2023-02-15T05:03:27;77.35;;;45.10;;
53925;SDS011;39836;52.754;6.866;2023-02-15T05:05:53;79.38;;;45.83;;
53925;SDS011;39836;52.754;6.866;2023-02-15T05:08:19;83.45;;;47.30;;
53925;SDS011;39836;52.754;6.866;2023-02-15T05:10:47;71.18;;;44.65;;
53925;SDS011;39836;52.754;6.866;2023-02-15T05:13:13;77.45;;;47.25;;
53925;SDS011;39836;52.754;6.866;2023-02-15T05:15:39;81.30;;;47.38;;
53925;SDS011;39836;52.754;6.866;2023-02-15T05:18:05;84.22;;;47.88;;
53925;SDS011;39836;52.754;6.866;2023-02-15T05:20:32;85.20;;;48.28;;
53925;SDS011;39836;52.754;6.866;2023-02-15T05:22:58;79.00;;;48.35;;
53925;SDS011;39836;52.754;6.866;2023-02-15T05:25:24;84.60;;;46.78;;
53925;SDS011;39836;52.754;6.866;2023-02-15T05:28:11;90.20;;;49.63;;
53925;SDS011;39836;52.754;6.866;2023-02-15T05:30:49;75.20;;;45.22;;
53925;SDS011;39836;52.754;6.866;2023-02-15T05:33:22;73.07;;;45.10;;
53925;SDS011;39836;52.754;6.866;2023-02-15T05:35:47;84.63;;;48.25;;
53925;SDS011;39836;52.754;6.866;2023-02-15T05:38:13;64.95;;;40.75;;
53925;SDS011;39836;52.754;6.866;2023-02-15T05:40:39;65.00;;;39.30;;
53925;SDS011;39836;52.754;6.866;2023-02-15T05:43:04;65.75;;;40.08;;
53925;SDS011;39836;52.754;6.866;2023-02-15T05:45:30;56.45;;;37.45;;
53925;SDS011;39836;52.754;6.866;2023-02-15T05:47:56;60.72;;;40.45;;
53925;SDS011;39836;52.754;6.866;2023-02-15T05:50:23;69.72;;;41.30;;
53925;SDS011;39836;52.754;6.866;2023-02-15T05:52:49;72.38;;;43.03;;
53925;SDS011;39836;52.754;6.866;2023-02-15T05:55:15;71.15;;;41.40;;
53925;SDS011;39836;52.754;6.866;2023-02-15T05:57:40;69.45;;;42.85;;
53925;SDS011;39836;52.754;6.866;2023-02-15T06:00:06;74.60;;;43.80;;
53925;SDS011;39836;52.754;6.866;2023-02-15T06:02:34;62.63;;;40.03;;
53925;SDS011;39836;52.754;6.866;2023-02-15T06:05:00;87.13;;;43.88;;
53925;SDS011;39836;52.754;6.866;2023-02-15T06:07:26;122.72;;;43.15;;
53925;SDS011;39836;52.754;6.866;2023-02-15T06:09:51;72.53;;;40.83;;
53925;SDS011;39836;52.754;6.866;2023-02-15T06:12:17;70.32;;;41.92;;
53925;SDS011;39836;52.754;6.866;2023-02-15T06:14:43;85.75;;;43.40;;
53925;SDS011;39836;52.754;6.866;2023-02-15T06:17:08;75.97;;;44.30;;
53925;SDS011;39836;52.754;6.866;2023-02-15T06:19:34;75.18;;;47.33;;
53925;SDS011;39836;52.754;6.866;2023-02-15T06:22:00;87.00;;;46.53;;
53925;SDS011;39836;52.754;6.866;2023-02-15T06:24:25;80.47;;;47.00;;
53925;SDS011;39836;52.754;6.866;2023-02-15T06:26:51;62.78;;;39.20;;
53925;SDS011;39836;52.754;6.866;2023-02-15T06:29:17;64.18;;;39.72;;
53925;SDS011;39836;52.754;6.866;2023-02-15T06:31:42;61.83;;;39.28;;
53925;SDS011;39836;52.754;6.866;2023-02-15T06:34:08;67.00;;;40.33;;
53925;SDS011;39836;52.754;6.866;2023-02-15T06:36:34;66.05;;;40.97;;
53925;SDS011;39836;52.754;6.866;2023-02-15T06:39:00;63.15;;;38.00;;
53925;SDS011;39836;52.754;6.866;2023-02-15T06:41:27;67.20;;;41.03;;
53925;SDS011;39836;52.754;6.866;2023-02-15T06:43:52;63.95;;;39.45;;
53925;SDS011;39836;52.754;6.866;2023-02-15T06:46:18;61.55;;;38.38;;
53925;SDS011;39836;52.754;6.866;2023-02-15T06:48:44;69.82;;;41.38;;
53925;SDS011;39836;52.754;6.866;2023-02-15T06:51:09;66.07;;;40.47;;
53925;SDS011;39836;52.754;6.866;2023-02-15T06:53:35;76.38;;;45.03;;
53925;SDS011;39836;52.754;6.866;2023-02-15T06:56:01;72.75;;;43.10;;
53925;SDS011;39836;52.754;6.866;2023-02-15T06:58:28;67.20;;;41.55;;
53925;SDS011;39836;52.754;6.866;2023-02-15T07:00:54;70.43;;;41.50;;
53925;SDS011;39836;52.754;6.866;2023-02-15T07:03:19;75.00;;;42.75;;
53925;SDS011;39836;52.754;6.866;2023-02-15T07:05:45;78.80;;;43.47;;
53925;SDS011;39836;52.754;6.866;2023-02-15T07:08:12;84.05;;;46.35;;
53925;SDS011;39836;52.754;6.866;2023-02-15T07:10:38;78.63;;;46.30;;
53925;SDS011;39836;52.754;6.866;2023-02-15T07:13:03;79.93;;;46.50;;
53925;SDS011;39836;52.754;6.866;2023-02-15T07:15:29;93.80;;;50.00;;
53925;SDS011;39836;52.754;6.866;2023-02-15T07:17:56;92.88;;;49.67;;
53925;SDS011;39836;52.754;6.866;2023-02-15T07:20:23;83.90;;;49.05;;
53925;SDS011;39836;52.754;6.866;2023-02-15T07:22:49;89.80;;;50.65;;
53925;SDS011;39836;52.754;6.866;2023-02-15T07:25:15;90.07;;;47.67;;
53925;SDS011;39836;52.754;6.866;2023-02-15T07:27:41;96.82;;;51.83;;
53925;SDS011;39836;52.754;6.866;2023-02-15T07:30:08;98.45;;;50.88;;
53925;SDS011;39836;52.754;6.866;2023-02-15T07:32:36;106.95;;;52.65;;
53925;SDS011;39836;52.754;6.866;2023-02-15T07:35:22;86.32;;;49.10;;
53925;SDS011;39836;52.754;6.866;2023-02-15T07:37:47;88.43;;;48.78;;
53925;SDS011;39836;52.754;6.866;2023-02-15T07:40:13;90.57;;;48.53;;
53925;SDS011;39836;52.754;6.866;2023-02-15T07:42:39;88.72;;;48.63;;
53925;SDS011;39836;52.754;6.866;2023-02-15T07:45:04;79.72;;;47.08;;
53925;SDS011;39836;52.754;6.866;2023-02-15T07:47:30;84.18;;;48.70;;
53925;SDS011;39836;52.754;6.866;2023-02-15T07:49:56;79.65;;;47.30;;
53925;SDS011;39836;52.754;6.866;2023-02-15T07:52:22;75.38;;;45.20;;
53925;SDS011;39836;52.754;6.866;2023-02-15T07:54:47;76.50;;;43.97;;
53925;SDS011;39836;52.754;6.866;2023-02-15T07:57:13;75.70;;;43.75;;
53925;SDS011;39836;52.754;6.866;2023-02-15T07:59:38;86.00;;;46.95;;
53925;SDS011;39836;52.754;6.866;2023-02-15T08:02:07;80.47;;;46.25;;
53925;SDS011;39836;52.754;6.866;2023-02-15T08:04:35;75.22;;;44.63;;
53925;SDS011;39836;52.754;6.866;2023-02-15T08:07:00;77.15;;;44.00;;
53925;SDS011;39836;52.754;6.866;2023-02-15T08:09:26;74.82;;;42.13;;
53925;SDS011;39836;52.754;6.866;2023-02-15T08:11:52;76.57;;;43.63;;
53925;SDS011;39836;52.754;6.866;2023-02-15T08:14:18;73.40;;;43.15;;
53925;SDS011;39836;52.754;6.866;2023-02-15T08:16:54;75.32;;;44.25;;
53925;SDS011;39836;52.754;6.866;2023-02-15T08:19:25;77.93;;;44.85;;
53925;SDS011;39836;52.754;6.866;2023-02-15T08:22:03;74.18;;;43.53;;
53925;SDS011;39836;52.754;6.866;2023-02-15T08:24:31;78.60;;;42.58;;
53925;SDS011;39836;52.754;6.866;2023-02-15T08:26:58;84.60;;;44.88;;
53925;SDS011;39836;52.754;6.866;2023-02-15T08:29:25;81.20;;;45.30;;
53925;SDS011;39836;52.754;6.866;2023-02-15T08:31:52;74.78;;;42.92;;
53925;SDS011;39836;52.754;6.866;2023-02-15T08:34:20;75.53;;;44.03;;
53925;SDS011;39836;52.754;6.866;2023-02-15T08:36:46;67.78;;;41.88;;
53925;SDS011;39836;52.754;6.866;2023-02-15T08:39:12;68.90;;;41.05;;
53925;SDS011;39836;52.754;6.866;2023-02-15T08:41:43;72.82;;;41.58;;
53925;SDS011;39836;52.754;6.866;2023-02-15T08:44:09;73.88;;;42.30;;
53925;SDS011;39836;52.754;6.866;2023-02-15T08:46:36;82.85;;;43.63;;
53925;SDS011;39836;52.754;6.866;2023-02-15T08:49:04;67.32;;;42.65;;
53925;SDS011;39836;52.754;6.866;2023-02-15T08:51:32;69.97;;;41.03;;
53925;SDS011;39836;52.754;6.866;2023-02-15T08:54:00;72.05;;;41.63;;
53925;SDS011;39836;52.754;6.866;2023-02-15T08:56:28;71.40;;;42.42;;
53925;SDS011;39836;52.754;6.866;2023-02-15T08:58:57;73.05;;;41.63;;
53925;SDS011;39836;52.754;6.866;2023-02-15T09:01:27;73.05;;;42.88;;
53925;SDS011;39836;52.754;6.866;2023-02-15T09:04:01;72.53;;;42.05;;
53925;SDS011;39836;52.754;6.866;2023-02-15T09:06:35;72.63;;;42.45;;
53925;SDS011;39836;52.754;6.866;2023-02-15T09:09:02;67.55;;;42.70;;
53925;SDS011;39836;52.754;6.866;2023-02-15T09:11:39;77.68;;;41.95;;
53925;SDS011;39836;52.754;6.866;2023-02-15T09:14:07;76.05;;;42.90;;
53925;SDS011;39836;52.754;6.866;2023-02-15T09:16:38;75.88;;;42.88;;
53925;SDS011;39836;52.754;6.866;2023-02-15T09:19:04;73.50;;;43.90;;
53925;SDS011;39836;52.754;6.866;2023-02-15T09:21:30;69.68;;;42.85;;
53925;SDS011;39836;52.754;6.866;2023-02-15T09:23:58;65.57;;;40.05;;
53925;SDS011;39836;52.754;6.866;2023-02-15T09:26:30;71.25;;;40.90;;
53925;SDS011;39836;52.754;6.866;2023-02-15T09:28:57;67.65;;;40.97;;
53925;SDS011;39836;52.754;6.866;2023-02-15T09:31:27;68.93;;;40.20;;
53925;SDS011;39836;52.754;6.866;2023-02-15T09:33:54;77.90;;;42.80;;
53925;SDS011;39836;52.754;6.866;2023-02-15T09:36:21;72.40;;;40.63;;
53925;SDS011;39836;52.754;6.866;2023-02-15T09:39:08;68.70;;;38.75;;
53925;SDS011;39836;52.754;6.866;2023-02-15T10:04:19;64.80;;;39.00;;
53925;SDS011;39836;52.754;6.866;2023-02-15T10:15:43;63.63;;;37.80;;
53925;SDS011;39836;52.754;6.866;2023-02-15T10:18:30;68.22;;;39.97;;
53925;SDS011;39836;52.754;6.866;2023-02-15T10:27:11;67.25;;;38.88;;
53925;SDS011;39836;52.754;6.866;2023-02-15T10:29:39;68.20;;;40.88;;
53925;SDS011;39836;52.754;6.866;2023-02-15T10:32:26;69.50;;;41.38;;
53925;SDS011;39836;52.754;6.866;2023-02-15T10:34:58;69.70;;;42.28;;
53925;SDS011;39836;52.754;6.866;2023-02-15T10:42:57;71.60;;;41.05;;
53925;SDS011;39836;52.754;6.866;2023-02-15T10:49:02;69.05;;;38.97;;
53925;SDS011;39836;52.754;6.866;2023-02-15T10:52:03;61.85;;;37.55;;
53925;SDS011;39836;52.754;6.866;2023-02-15T11:03:06;67.30;;;42.55;;
53925;SDS011;39836;52.754;6.866;2023-02-15T11:08:33;64.45;;;39.63;;
53925;SDS011;39836;52.754;6.866;2023-02-15T11:11:06;64.47;;;41.10;;
53925;SDS011;39836;52.754;6.866;2023-02-15T11:13:39;63.70;;;38.95;;
53925;SDS011;39836;52.754;6.866;2023-02-15T11:18:51;63.28;;;37.70;;
53925;SDS011;39836;52.754;6.866;2023-02-15T11:21:22;68.25;;;40.95;;
53925;SDS011;39836;52.754;6.866;2023-02-15T11:23:54;64.60;;;39.70;;
53925;SDS011;39836;52.754;6.866;2023-02-15T11:28:55;66.90;;;39.05;;
53925;SDS011;39836;52.754;6.866;2023-02-15T11:31:25;61.05;;;37.65;;
53925;SDS011;39836;52.754;6.866;2023-02-15T11:33:57;60.25;;;38.20;;
53925;SDS011;39836;52.754;6.866;2023-02-15T11:36:34;61.58;;;37.17;;
53925;SDS011;39836;52.754;6.866;2023-02-15T11:39:07;62.70;;;38.13;;
53925;SDS011;39836;52.754;6.866;2023-02-15T11:41:37;61.75;;;38.67;;
53925;SDS011;39836;52.754;6.866;2023-02-15T11:44:17;64.82;;;37.95;;
53925;SDS011;39836;52.754;6.866;2023-02-15T11:46:48;65.28;;;37.65;;
53925;SDS011;39836;52.754;6.866;2023-02-15T11:49:35;60.92;;;36.47;;
53925;SDS011;39836;52.754;6.866;2023-02-15T11:52:21;59.28;;;38.00;;
53925;SDS011;39836;52.754;6.866;2023-02-15T11:54:46;64.85;;;39.70;;
53925;SDS011;39836;52.754;6.866;2023-02-15T11:57:37;57.85;;;36.45;;
53925;SDS011;39836;52.754;6.866;2023-02-15T12:00:29;70.25;;;39.10;;
53925;SDS011;39836;52.754;6.866;2023-02-15T12:03:03;62.60;;;37.80;;
53925;SDS011;39836;52.754;6.866;2023-02-15T12:05:57;63.45;;;38.10;;
53925;SDS011;39836;52.754;6.866;2023-02-15T12:08:29;58.75;;;36.58;;
53925;SDS011;39836;52.754;6.866;2023-02-15T12:13:44;57.22;;;35.42;;
53925;SDS011;39836;52.754;6.866;2023-02-15T12:16:20;58.05;;;35.30;;
53925;SDS011;39836;52.754;6.866;2023-02-15T12:18:46;55.92;;;35.65;;
53925;SDS011;39836;52.754;6.866;2023-02-15T12:23:54;59.58;;;35.08;;
53925;SDS011;39836;52.754;6.866;2023-02-15T12:26:30;55.45;;;34.38;;
53925;SDS011;39836;52.754;6.866;2023-02-15T12:28:59;55.13;;;32.72;;
53925;SDS011;39836;52.754;6.866;2023-02-15T12:31:36;56.08;;;34.53;;
53925;SDS011;39836;52.754;6.866;2023-02-15T12:34:09;54.58;;;35.22;;
53925;SDS011;39836;52.754;6.866;2023-02-15T12:36:42;53.03;;;31.80;;
53925;SDS011;39836;52.754;6.866;2023-02-15T12:41:37;54.35;;;31.80;;
53925;SDS011;39836;52.754;6.866;2023-02-15T12:44:18;57.45;;;32.63;;
53925;SDS011;39836;52.754;6.866;2023-02-15T12:46:58;57.38;;;32.08;;
53925;SDS011;39836;52.754;6.866;2023-02-15T12:49:33;57.85;;;32.70;;
53925;SDS011;39836;52.754;6.866;2023-02-15T12:52:01;50.90;;;31.38;;
53925;SDS011;39836;52.754;6.866;2023-02-15T12:54:39;57.08;;;30.20;;
53925;SDS011;39836;52.754;6.866;2023-02-15T13:00:04;49.97;;;30.90;;
53925;SDS011;39836;52.754;6.866;2023-02-15T13:02:49;52.72;;;30.00;;
53925;SDS011;39836;52.754;6.866;2023-02-15T13:05:18;52.22;;;31.45;;
53925;SDS011;39836;52.754;6.866;2023-02-15T13:07:50;50.28;;;31.50;;
53925;SDS011;39836;52.754;6.866;2023-02-15T13:10:40;54.78;;;30.60;;
53925;SDS011;39836;52.754;6.866;2023-02-15T13:13:26;50.05;;;29.75;;
53925;SDS011;39836;52.754;6.866;2023-02-15T13:16:04;49.55;;;28.65;;
53925;SDS011;39836;52.754;6.866;2023-02-15T13:21:21;44.78;;;29.20;;
53925;SDS011;39836;52.754;6.866;2023-02-15T13:23:56;47.92;;;29.15;;
53925;SDS011;39836;52.754;6.866;2023-02-15T13:26:26;54.33;;;30.98;;
53925;SDS011;39836;52.754;6.866;2023-02-15T13:28:58;47.15;;;28.05;;
53925;SDS011;39836;52.754;6.866;2023-02-15T13:31:46;47.38;;;28.83;;
53925;SDS011;39836;52.754;6.866;2023-02-15T13:34:23;54.30;;;29.83;;
53925;SDS011;39836;52.754;6.866;2023-02-15T13:39:55;45.72;;;28.67;;
53925;SDS011;39836;52.754;6.866;2023-02-15T13:42:34;47.38;;;28.27;;
53925;SDS011;39836;52.754;6.866;2023-02-15T13:50:19;46.65;;;28.02;;
53925;SDS011;39836;52.754;6.866;2023-02-15T13:52:58;46.92;;;29.20;;
53925;SDS011;39836;52.754;6.866;2023-02-15T14:01:10;47.72;;;28.45;;
53925;SDS011;39836;52.754;6.866;2023-02-15T14:31:42;46.80;;;27.05;;
53925;SDS011;39836;52.754;6.866;2023-02-15T14:34:19;45.65;;;27.17;;
53925;SDS011;39836;52.754;6.866;2023-02-15T14:36:51;45.13;;;26.77;;
53925;SDS011;39836;52.754;6.866;2023-02-15T14:39:24;44.53;;;25.77;;
53925;SDS011;39836;52.754;6.866;2023-02-15T14:42:58;46.05;;;28.35;;
53925;SDS011;39836;52.754;6.866;2023-02-15T14:45:50;51.78;;;28.58;;
53925;SDS011;39836;52.754;6.866;2023-02-15T14:50:48;52.17;;;28.83;;
53925;SDS011;39836;52.754;6.866;2023-02-15T14:53:14;48.28;;;26.83;;
53925;SDS011;39836;52.754;6.866;2023-02-15T14:58:38;49.67;;;29.25;;
53925;SDS011;39836;52.754;6.866;2023-02-15T15:01:27;49.38;;;29.42;;
53925;SDS011;39836;52.754;6.866;2023-02-15T15:04:00;46.83;;;27.25;;
53925;SDS011;39836;52.754;6.866;2023-02-15T15:06:30;50.58;;;28.17;;
53925;SDS011;39836;52.754;6.866;2023-02-15T15:11:53;50.78;;;28.48;;
53925;SDS011;39836;52.754;6.866;2023-02-15T15:16:57;49.53;;;28.25;;
53925;SDS011;39836;52.754;6.866;2023-02-15T15:22:26;49.90;;;29.67;;
53925;SDS011;39836;52.754;6.866;2023-02-15T15:24:53;55.92;;;29.10;;
53925;SDS011;39836;52.754;6.866;2023-02-15T15:32:39;52.95;;;29.50;;
53925;SDS011;39836;52.754;6.866;2023-02-15T15:43:31;49.90;;;28.27;;
53925;SDS011;39836;52.754;6.866;2023-02-15T15:46:20;46.08;;;27.90;;
53925;SDS011;39836;52.754;6.866;2023-02-15T15:48:49;48.15;;;28.30;;
53925;SDS011;39836;52.754;6.866;2023-02-15T15:51:31;51.78;;;27.90;;
53925;SDS011;39836;52.754;6.866;2023-02-15T15:53:58;49.60;;;27.70;;
53925;SDS011;39836;52.754;6.866;2023-02-15T15:56:28;48.33;;;27.35;;
53925;SDS011;39836;52.754;6.866;2023-02-15T15:59:00;52.10;;;28.63;;
53925;SDS011;39836;52.754;6.866;2023-02-15T16:01:30;50.83;;;28.73;;
53925;SDS011;39836;52.754;6.866;2023-02-15T16:04:00;55.15;;;28.88;;
53925;SDS011;39836;52.754;6.866;2023-02-15T16:06:27;49.33;;;28.38;;
53925;SDS011;39836;52.754;6.866;2023-02-15T16:09:08;54.75;;;30.23;;
53925;SDS011;39836;52.754;6.866;2023-02-15T16:11:38;51.45;;;28.77;;
53925;SDS011;39836;52.754;6.866;2023-02-15T16:14:15;45.85;;;28.15;;
53925;SDS011;39836;52.754;6.866;2023-02-15T16:16:48;53.45;;;29.45;;
53925;SDS011;39836;52.754;6.866;2023-02-15T16:19:21;52.40;;;29.15;;
53925;SDS011;39836;52.754;6.866;2023-02-15T16:22:02;55.63;;;30.67;;
53925;SDS011;39836;52.754;6.866;2023-02-15T16:24:39;54.45;;;29.63;;
53925;SDS011;39836;52.754;6.866;2023-02-15T16:27:44;52.95;;;29.85;;
53925;SDS011;39836;52.754;6.866;2023-02-15T16:32:54;55.83;;;28.83;;
53925;SDS011;39836;52.754;6.866;2023-02-15T16:35:34;53.08;;;30.15;;
53925;SDS011;39836;52.754;6.866;2023-02-15T16:38:02;53.65;;;29.20;;
53925;SDS011;39836;52.754;6.866;2023-02-15T16:42:55;49.17;;;28.98;;
53925;SDS011;39836;52.754;6.866;2023-02-15T16:45:26;56.90;;;31.70;;
53925;SDS011;39836;52.754;6.866;2023-02-15T16:47:55;51.50;;;30.02;;
53925;SDS011;39836;52.754;6.866;2023-02-15T16:50:26;52.60;;;30.10;;
53925;SDS011;39836;52.754;6.866;2023-02-15T16:52:57;54.80;;;29.25;;
53925;SDS011;39836;52.754;6.866;2023-02-15T16:55:24;57.88;;;31.42;;
53925;SDS011;39836;52.754;6.866;2023-02-15T16:57:54;49.33;;;31.42;;
53925;SDS011;39836;52.754;6.866;2023-02-15T17:00:25;59.63;;;31.70;;
53925;SDS011;39836;52.754;6.866;2023-02-15T17:02:59;57.25;;;32.38;;
53925;SDS011;39836;52.754;6.866;2023-02-15T17:05:31;58.88;;;32.75;;
53925;SDS011;39836;52.754;6.866;2023-02-15T17:16:41;55.05;;;32.60;;
53925;SDS011;39836;52.754;6.866;2023-02-15T17:19:13;60.17;;;33.67;;
53925;SDS011;39836;52.754;6.866;2023-02-15T17:22:01;58.10;;;32.92;;
53925;SDS011;39836;52.754;6.866;2023-02-15T17:24:35;55.97;;;31.10;;
53925;SDS011;39836;52.754;6.866;2023-02-15T17:27:16;53.97;;;30.70;;
53925;SDS011;39836;52.754;6.866;2023-02-15T17:29:44;58.22;;;31.58;;
53925;SDS011;39836;52.754;6.866;2023-02-15T17:32:15;57.38;;;32.10;;
53925;SDS011;39836;52.754;6.866;2023-02-15T17:34:50;55.00;;;32.38;;
53925;SDS011;39836;52.754;6.866;2023-02-15T17:37:28;57.72;;;31.73;;
53925;SDS011;39836;52.754;6.866;2023-02-15T17:39:54;50.72;;;29.80;;
53925;SDS011;39836;52.754;6.866;2023-02-15T17:42:21;53.78;;;30.95;;
53925;SDS011;39836;52.754;6.866;2023-02-15T17:44:47;56.70;;;32.33;;
53925;SDS011;39836;52.754;6.866;2023-02-15T17:47:17;53.60;;;32.75;;
53925;SDS011;39836;52.754;6.866;2023-02-15T17:49:45;58.58;;;31.67;;